Time;durP1;ratioP1;P1;durP2;ratioP2;P2;SDS_P1;SDS_P2;PMS_P1;PMS_P2;Temp;Humidity;BMP_temperature;BMP_pressure;BME280_temperature;BME280_humidity;BME280_pressure;Samples;Min_cycle;Max_cycle;Signal;HPM_P1;HPM_P2
2024/01/14 00:00:33;;;;;;;43.37;26.17;;;;;;;-0.82;100.00;100608.53;5035790;28;20245;-77
2024/01/14 00:02:58;;;;;;;45.23;26.87;;;;;;;-0.84;100.00;100604.19;5021099;28;20222;-77
2024/01/14 00:05:24;;;;;;;46.87;27.87;;;;;;;-0.88;100.00;100603.16;5020573;28;20197;-76
2024/01/14 00:07:50;;;;;;;40.63;25.50;;;;;;;-0.93;100.00;100602.97;5022528;28;20751;-76
2024/01/14 00:10:17;;;;;;;42.73;25.70;;;;;;;-0.94;100.00;100600.38;5020329;28;20212;-76
2024/01/14 00:12:53;;;;;;;41.37;24.30;;;;;;;-0.97;100.00;100593.47;5028837;28;20253;-76
2024/01/14 00:15:21;;;;;;;45.33;27.03;;;;;;;-0.87;100.00;100598.97;5021187;28;20201;-76
2024/01/14 00:17:49;;;;;;;44.40;27.67;;;;;;;-0.88;100.00;100592.16;5020394;28;20204;-75
2024/01/14 00:20:19;;;;;;;49.53;29.37;;;;;;;-0.87;100.00;100588.81;5020110;28;20219;-76
2024/01/14 00:22:47;;;;;;;45.37;26.30;;;;;;;-0.88;100.00;100580.31;5015963;28;20188;-76
2024/01/14 00:25:19;;;;;;;43.07;26.30;;;;;;;-0.91;100.00;100582.75;5017637;28;20216;-76
2024/01/14 00:27:45;;;;;;;40.00;25.50;;;;;;;-0.92;100.00;100576.78;5033188;28;20700;-76
2024/01/14 00:30:17;;;;;;;38.83;23.87;;;;;;;-0.87;100.00;100569.34;5020764;28;20651;-76
2024/01/14 00:32:44;;;;;;;45.47;26.47;;;;;;;-0.87;100.00;100560.84;5021026;28;20219;-76
2024/01/14 00:35:13;;;;;;;45.73;26.63;;;;;;;-0.79;100.00;100562.91;5018531;28;20787;-76
2024/01/14 00:37:41;;;;;;;38.47;25.23;;;;;;;-0.74;100.00;100557.13;5023372;28;20225;-77
2024/01/14 00:40:10;;;;;;;45.33;27.43;;;;;;;-0.77;100.00;100556.22;5013367;28;20686;-77
2024/01/14 00:42:40;;;;;;;42.53;26.10;;;;;;;-0.79;100.00;100549.31;5018134;28;20259;-76
2024/01/14 00:45:11;;;;;;;41.93;24.70;;;;;;;-0.82;100.00;100532.28;5012816;28;20204;-76
2024/01/14 00:47:38;;;;;;;38.70;23.73;;;;;;;-0.83;100.00;100535.63;5029115;28;20199;-76
2024/01/14 00:50:15;;;;;;;41.63;25.60;;;;;;;-0.82;100.00;100531.41;5021340;28;20209;-76
2024/01/14 00:52:42;;;;;;;41.73;25.07;;;;;;;-0.81;100.00;100530.59;5017123;28;20197;-76
2024/01/14 00:55:10;;;;;;;41.13;25.27;;;;;;;-0.79;100.00;100524.78;5025172;28;20411;-76
2024/01/14 00:57:47;;;;;;;37.73;24.17;;;;;;;-0.81;100.00;100525.53;5021847;28;20202;-76
2024/01/14 01:00:14;;;;;;;40.77;24.87;;;;;;;-0.73;100.00;100519.09;5021991;28;20227;-76
2024/01/14 01:02:42;;;;;;;41.00;24.60;;;;;;;-0.76;100.00;100511.34;5021274;28;20671;-77
2024/01/14 01:05:10;;;;;;;42.43;27.27;;;;;;;-0.72;100.00;100512.31;5024812;28;20199;-76
2024/01/14 01:07:37;;;;;;;42.77;26.63;;;;;;;-0.69;100.00;100504.81;5020262;28;20360;-76
2024/01/14 01:10:07;;;;;;;46.53;27.40;;;;;;;-0.75;100.00;100497.81;5019708;28;20213;-76
2024/01/14 01:12:35;;;;;;;47.03;27.30;;;;;;;-0.79;100.00;100496.84;5026953;28;20273;-76
2024/01/14 01:15:03;;;;;;;45.70;26.87;;;;;;;-0.83;100.00;100494.97;5020590;28;20345;-76
2024/01/14 01:17:30;;;;;;;43.03;27.30;;;;;;;-0.85;100.00;100494.03;5042958;28;20228;-76
2024/01/14 01:19:59;;;;;;;41.87;25.07;;;;;;;-0.89;100.00;100494.72;5028008;28;21897;-76
2024/01/14 01:22:27;;;;;;;42.07;25.53;;;;;;;-0.92;100.00;100485.31;5026237;28;20205;-76
2024/01/14 01:24:54;;;;;;;41.70;26.23;;;;;;;-0.90;100.00;100484.50;5040330;28;20186;-76
2024/01/14 01:27:22;;;;;;;43.03;26.30;;;;;;;-0.93;100.00;100468.31;5022971;28;20205;-76
2024/01/14 01:29:52;;;;;;;39.87;25.23;;;;;;;-0.95;100.00;100481.78;5021088;28;20224;-76
2024/01/14 01:32:20;;;;;;;45.07;26.30;;;;;;;-0.97;100.00;100473.22;5026773;28;20228;-76
2024/01/14 01:34:48;;;;;;;44.50;26.13;;;;;;;-1.04;100.00;100464.47;5027535;28;20198;-76
2024/01/14 01:37:23;;;;;;;44.60;26.60;;;;;;;-1.06;100.00;100462.69;5023803;28;20278;-76
2024/01/14 01:39:56;;;;;;;41.47;25.73;;;;;;;-1.09;100.00;100469.38;5019879;28;20220;-76
2024/01/14 01:42:22;;;;;;;39.63;24.83;;;;;;;-1.10;100.00;100466.75;5036683;28;20205;-76
2024/01/14 01:44:48;;;;;;;44.33;25.90;;;;;;;-1.05;100.00;100469.47;5032508;28;20245;-76
2024/01/14 01:47:15;;;;;;;42.27;25.37;;;;;;;-1.11;100.00;100453.22;5026498;28;20192;-77
2024/01/14 01:49:41;;;;;;;40.30;23.97;;;;;;;-1.14;100.00;100460.69;5020636;28;20222;-77
2024/01/14 01:52:07;;;;;;;38.33;24.77;;;;;;;-1.14;100.00;100455.63;5027640;28;20212;-79
2024/01/14 01:54:33;;;;;;;40.23;25.73;;;;;;;-1.08;100.00;100457.53;5027030;28;20714;-76
2024/01/14 01:56:59;;;;;;;35.83;24.23;;;;;;;-1.19;100.00;100448.63;5030765;28;20197;-76
2024/01/14 01:59:26;;;;;;;38.27;24.57;;;;;;;-1.21;100.00;100447.69;5019240;28;20343;-76
2024/01/14 02:01:51;;;;;;;38.27;23.83;;;;;;;-1.24;100.00;100446.75;5021580;28;20198;-79
2024/01/14 02:04:17;;;;;;;41.10;25.47;;;;;;;-1.24;100.00;100441.66;5014653;28;20189;-76
2024/01/14 02:06:43;;;;;;;39.43;24.20;;;;;;;-1.23;100.00;100433.25;5023864;28;20186;-77
2024/01/14 02:09:09;;;;;;;38.37;25.27;;;;;;;-1.23;100.00;100435.78;5016680;28;20280;-77
2024/01/14 02:11:35;;;;;;;38.70;25.10;;;;;;;-1.28;100.00;100437.25;5022811;28;20298;-77
2024/01/14 02:14:02;;;;;;;40.67;26.47;;;;;;;-1.23;100.00;100422.22;5017462;28;20547;-77
2024/01/14 02:16:27;;;;;;;34.03;23.10;;;;;;;-1.20;100.00;100427.41;5025384;28;20187;-76
2024/01/14 02:18:52;;;;;;;39.13;26.70;;;;;;;-1.15;100.00;100435.25;5025208;28;20199;-76
2024/01/14 02:21:22;;;;;;;40.23;26.30;;;;;;;-1.24;100.00;100431.50;5022436;28;20208;-77
2024/01/14 02:23:53;;;;;;;40.47;25.10;;;;;;;-1.25;100.00;100431.47;5026621;28;20659;-78
2024/01/14 02:26:18;;;;;;;38.37;25.17;;;;;;;-1.28;100.00;100442.34;5018160;28;20196;-76
2024/01/14 02:28:44;;;;;;;41.17;24.30;;;;;;;-1.21;100.00;100442.59;5020125;28;20185;-76
2024/01/14 02:31:09;;;;;;;38.63;24.27;;;;;;;-1.17;100.00;100439.38;5019650;28;20216;-76
2024/01/14 02:33:35;;;;;;;39.47;24.77;;;;;;;-1.12;100.00;100433.69;5020243;28;20184;-76
2024/01/14 02:36:00;;;;;;;38.93;25.07;;;;;;;-1.13;100.00;100438.69;5018281;28;20191;-76
2024/01/14 02:38:25;;;;;;;41.30;25.37;;;;;;;-1.10;100.00;100433.75;5023498;28;20215;-77
2024/01/14 02:40:51;;;;;;;44.57;27.93;;;;;;;-1.01;100.00;100436.66;5023279;28;20212;-76
2024/01/14 02:43:16;;;;;;;41.63;26.37;;;;;;;-1.01;100.00;100445.94;5029145;28;20193;-76
2024/01/14 02:45:41;;;;;;;43.67;27.47;;;;;;;-1.01;100.00;100431.59;5016198;28;20276;-77
2024/01/14 02:48:07;;;;;;;40.60;26.47;;;;;;;-1.04;100.00;100426.38;5012480;28;20186;-76
2024/01/14 02:50:32;;;;;;;42.67;25.57;;;;;;;-1.13;100.00;100426.00;5022325;28;20213;-77
2024/01/14 02:52:57;;;;;;;44.30;27.43;;;;;;;-1.14;100.00;100426.81;5022204;28;20257;-77
2024/01/14 02:55:22;;;;;;;47.80;28.87;;;;;;;-1.16;100.00;100434.34;5018173;28;20209;-76
2024/01/14 02:57:49;;;;;;;40.30;26.17;;;;;;;-1.16;100.00;100429.28;5021892;28;20219;-76
2024/01/14 03:00:15;;;;;;;44.83;27.83;;;;;;;-1.15;100.00;100425.94;5019269;28;20851;-76
2024/01/14 03:02:40;;;;;;;44.30;26.53;;;;;;;-1.16;100.00;100414.03;5023930;28;20744;-77
2024/01/14 03:05:06;;;;;;;46.90;28.37;;;;;;;-1.13;100.00;100420.91;5039474;28;20247;-76
2024/01/14 03:07:31;;;;;;;42.97;28.00;;;;;;;-1.18;100.00;100420.72;5027008;28;20226;-77
2024/01/14 03:09:56;;;;;;;42.67;27.93;;;;;;;-1.12;100.00;100417.56;5025182;28;20211;-78
2024/01/14 03:12:22;;;;;;;46.87;28.40;;;;;;;-1.15;100.00;100413.25;5041810;28;20280;-76
2024/01/14 03:14:47;;;;;;;41.47;26.83;;;;;;;-1.11;100.00;100416.75;5024685;28;20203;-77
2024/01/14 03:17:12;;;;;;;40.23;26.83;;;;;;;-1.12;100.00;100409.94;5026906;28;20207;-76
2024/01/14 03:19:38;;;;;;;42.43;27.20;;;;;;;-1.10;100.00;100408.34;5026874;28;20241;-76
2024/01/14 03:22:03;;;;;;;38.53;25.13;;;;;;;-1.10;100.00;100413.41;5023781;28;20208;-76
2024/01/14 03:24:28;;;;;;;41.13;26.47;;;;;;;-1.11;100.00;100410.03;5026562;28;20194;-77
2024/01/14 03:26:53;;;;;;;36.20;25.00;;;;;;;-1.06;100.00;100415.28;5024340;28;20204;-77
2024/01/14 03:29:19;;;;;;;40.47;26.93;;;;;;;-1.05;100.00;100414.47;5013957;28;20271;-77
2024/01/14 03:31:44;;;;;;;39.53;25.37;;;;;;;-0.96;100.00;100422.47;5020592;28;20226;-77
2024/01/14 03:34:09;;;;;;;46.83;28.17;;;;;;;-0.92;100.00;100408.22;5023702;28;20274;-76
2024/01/14 03:36:35;;;;;;;40.60;25.90;;;;;;;-0.96;100.00;100406.38;5026620;28;20675;-77
2024/01/14 03:39:00;;;;;;;45.07;28.40;;;;;;;-0.94;100.00;100408.16;5021011;28;20197;-76
2024/01/14 03:41:26;;;;;;;46.07;29.13;;;;;;;-0.97;100.00;100400.41;5025193;28;20323;-77
2024/01/14 03:43:51;;;;;;;44.37;28.93;;;;;;;-0.99;100.00;100402.03;5020455;28;20197;-76
2024/01/14 03:46:17;;;;;;;46.43;28.13;;;;;;;-1.05;100.00;100401.78;5025578;28;20626;-75
2024/01/14 03:48:42;;;;;;;45.03;27.27;;;;;;;-1.03;100.00;100399.28;5021976;28;20202;-76
2024/01/14 03:51:08;;;;;;;42.77;26.37;;;;;;;-1.03;100.00;100401.84;5024725;28;20206;-76
2024/01/14 03:53:33;;;;;;;43.80;27.97;;;;;;;-0.99;100.00;100394.41;5024196;28;20451;-75
2024/01/14 03:55:58;;;;;;;45.00;27.27;;;;;;;-0.97;100.00;100397.84;5019858;28;20196;-76
2024/01/14 03:58:24;;;;;;;45.37;26.60;;;;;;;-1.02;100.00;100391.75;5021445;28;20197;-76
2024/01/14 04:00:49;;;;;;;41.20;27.30;;;;;;;-1.02;100.00;100401.03;5022835;28;20213;-76
2024/01/14 04:03:14;;;;;;;44.80;27.50;;;;;;;-1.02;100.00;100396.81;5022008;28;20194;-76
2024/01/14 04:05:40;;;;;;;42.43;27.23;;;;;;;-1.09;100.00;100393.19;5019239;28;20205;-77
2024/01/14 04:08:05;;;;;;;45.53;27.20;;;;;;;-1.10;100.00;100403.25;5016189;28;20194;-77
2024/01/14 04:10:31;;;;;;;39.17;26.63;;;;;;;-1.17;100.00;100406.38;5018573;28;20236;-76
2024/01/14 04:12:56;;;;;;;41.73;25.90;;;;;;;-1.17;100.00;100401.28;5015367;28;20193;-76
2024/01/14 04:15:24;;;;;;;44.87;27.57;;;;;;;-1.17;100.00;100402.16;5020614;28;20208;-77
2024/01/14 04:17:49;;;;;;;40.67;26.87;;;;;;;-1.18;100.00;100400.41;5018909;28;20196;-76
2024/01/14 04:20:15;;;;;;;42.77;27.20;;;;;;;-1.14;100.00;100411.59;5037673;28;20200;-76
2024/01/14 04:22:40;;;;;;;39.37;26.53;;;;;;;-1.15;100.00;100405.63;5016492;28;20670;-76
2024/01/14 04:25:06;;;;;;;45.27;29.23;;;;;;;-1.13;100.00;100413.28;5037308;28;20189;-77
2024/01/14 04:27:31;;;;;;;44.03;27.43;;;;;;;-1.15;100.00;100415.78;5021180;28;20200;-76
2024/01/14 04:29:57;;;;;;;39.83;27.47;;;;;;;-1.18;100.00;100409.72;5015307;28;20232;-78
2024/01/14 04:32:22;;;;;;;39.83;25.17;;;;;;;-1.20;100.00;100412.16;5018214;28;20528;-77
2024/01/14 04:34:47;;;;;;;40.73;26.23;;;;;;;-1.14;100.00;100414.97;5021156;28;20192;-75
2024/01/14 04:37:13;;;;;;;43.37;27.70;;;;;;;-1.12;100.00;100415.91;5015067;28;20191;-76
2024/01/14 04:39:38;;;;;;;43.80;27.20;;;;;;;-1.14;100.00;100414.97;5022423;28;20236;-76
2024/01/14 04:42:04;;;;;;;39.70;27.00;;;;;;;-1.14;100.00;100409.03;5018907;28;20210;-76
2024/01/14 04:44:29;;;;;;;38.60;25.93;;;;;;;-1.12;100.00;100409.94;5023940;28;20193;-77
2024/01/14 04:46:55;;;;;;;45.83;28.90;;;;;;;-1.10;100.00;100396.53;5024189;28;20568;-77
2024/01/14 04:49:20;;;;;;;46.10;29.17;;;;;;;-1.10;100.00;100408.34;5020564;28;20193;-76
2024/01/14 04:51:45;;;;;;;45.03;28.53;;;;;;;-1.14;100.00;100412.44;5019118;28;20198;-76
2024/01/14 04:54:11;;;;;;;43.23;29.33;;;;;;;-1.19;100.00;100411.38;5022661;28;20199;-77
2024/01/14 04:56:37;;;;;;;44.60;28.17;;;;;;;-1.24;100.00;100413.72;5024420;28;20200;-77
2024/01/14 04:59:02;;;;;;;46.03;29.53;;;;;;;-1.26;100.00;100415.34;5021347;28;20288;-76
2024/01/14 05:01:27;;;;;;;45.23;28.67;;;;;;;-1.27;100.00;100407.66;5020163;28;20597;-77
2024/01/14 05:03:52;;;;;;;48.23;30.17;;;;;;;-1.29;100.00;100407.63;5023483;28;20200;-76
2024/01/14 05:06:18;;;;;;;47.93;30.23;;;;;;;-1.29;100.00;100404.19;5017570;28;20192;-77
2024/01/14 05:08:43;;;;;;;45.10;27.97;;;;;;;-1.30;100.00;100403.34;5027048;28;20186;-77
2024/01/14 05:11:09;;;;;;;46.10;28.83;;;;;;;-1.32;100.00;100404.06;5019805;28;20204;-76
2024/01/14 05:13:35;;;;;;;47.27;28.77;;;;;;;-1.35;100.00;100401.38;5018715;28;20201;-76
2024/01/14 05:16:01;;;;;;;45.33;27.97;;;;;;;-1.34;100.00;100390.44;5020364;28;20197;-77
2024/01/14 05:18:26;;;;;;;44.47;28.83;;;;;;;-1.39;100.00;100388.59;5016856;28;20195;-76
2024/01/14 05:20:52;;;;;;;45.33;26.97;;;;;;;-1.39;100.00;100387.72;5021147;28;20690;-77
2024/01/14 05:23:18;;;;;;;45.07;28.43;;;;;;;-1.41;100.00;100385.13;5026520;28;20229;-77
2024/01/14 05:25:43;;;;;;;48.00;29.33;;;;;;;-1.38;100.00;100376.75;5018494;28;20833;-76
2024/01/14 05:28:08;;;;;;;45.03;27.87;;;;;;;-1.44;100.00;100373.97;5036775;28;20203;-76
2024/01/14 05:30:34;;;;;;;46.47;28.17;;;;;;;-1.46;100.00;100371.38;5016196;28;21119;-76
2024/01/14 05:32:59;;;;;;;44.07;27.23;;;;;;;-1.50;100.00;100366.94;5018682;28;20924;-77
2024/01/14 05:35:24;;;;;;;44.10;27.77;;;;;;;-1.51;100.00;100366.91;5019713;28;20199;-76
2024/01/14 05:37:50;;;;;;;46.70;29.13;;;;;;;-1.52;100.00;100353.34;5014155;28;20216;-77
2024/01/14 05:40:15;;;;;;;46.30;30.63;;;;;;;-1.52;100.00;100360.97;5016925;28;20207;-76
2024/01/14 05:42:42;;;;;;;49.83;35.10;;;;;;;-1.54;100.00;100348.19;5015151;28;20196;-77
2024/01/14 05:45:10;;;;;;;53.03;34.67;;;;;;;-1.50;100.00;100346.66;5018653;28;20244;-77
2024/01/14 05:47:35;;;;;;;61.37;38.93;;;;;;;-1.52;100.00;100347.41;5018782;28;20284;-77
2024/01/14 05:50:00;;;;;;;51.57;34.30;;;;;;;-1.51;100.00;100346.59;5019005;28;20330;-77
2024/01/14 05:52:26;;;;;;;60.93;41.77;;;;;;;-1.51;100.00;100341.53;5041397;28;20200;-76
2024/01/14 05:54:51;;;;;;;50.93;33.60;;;;;;;-1.47;100.00;100336.63;5025097;28;20258;-77
2024/01/14 05:57:16;;;;;;;58.77;37.43;;;;;;;-1.48;100.00;100344.19;5027071;28;20204;-76
2024/01/14 05:59:42;;;;;;;50.27;34.53;;;;;;;-1.55;100.00;100340.53;5028862;28;20223;-76
2024/01/14 06:02:09;;;;;;;53.07;35.10;;;;;;;-1.52;100.00;100330.50;5026071;28;20196;-76
2024/01/14 06:04:34;;;;;;;58.47;41.40;;;;;;;-1.47;100.00;100328.16;5022417;28;20187;-76
2024/01/14 06:06:59;;;;;;;52.60;37.07;;;;;;;-1.55;100.00;100330.38;5020583;28;20197;-76
2024/01/14 06:09:25;;;;;;;49.77;32.50;;;;;;;-1.52;100.00;100327.09;5019644;28;20275;-76
2024/01/14 06:11:51;;;;;;;48.03;32.90;;;;;;;-1.52;100.00;100324.56;5015949;28;20197;-76
2024/01/14 06:14:16;;;;;;;49.43;31.30;;;;;;;-1.42;100.00;100329.19;5016874;28;20217;-76
2024/01/14 06:16:41;;;;;;;46.03;28.57;;;;;;;-1.42;100.00;100329.19;5023430;28;20250;-76
2024/01/14 06:19:06;;;;;;;46.07;27.40;;;;;;;-1.45;100.00;100318.94;5023926;28;20202;-76
2024/01/14 06:21:32;;;;;;;45.77;26.63;;;;;;;-1.44;100.00;100324.06;5021946;28;20217;-76
2024/01/14 06:23:57;;;;;;;42.87;26.63;;;;;;;-1.40;100.00;100317.44;5015916;28;20351;-76
2024/01/14 06:26:23;;;;;;;45.70;26.97;;;;;;;-1.42;100.00;100325.00;5022738;28;20291;-78
2024/01/14 06:28:48;;;;;;;44.67;26.37;;;;;;;-1.41;100.00;100315.69;5025037;28;20192;-77
2024/01/14 06:31:13;;;;;;;44.90;26.20;;;;;;;-1.44;100.00;100315.59;5023262;28;20216;-76
2024/01/14 06:33:38;;;;;;;45.07;28.17;;;;;;;-1.39;100.00;100324.25;5023089;28;20187;-77
2024/01/14 06:36:05;;;;;;;44.00;25.03;;;;;;;-1.36;100.00;100314.22;5021323;28;20181;-77
2024/01/14 06:38:30;;;;;;;48.27;29.60;;;;;;;-1.38;100.00;100306.56;5025092;28;20242;-77
2024/01/14 06:40:56;;;;;;;49.20;29.10;;;;;;;-1.39;100.00;100292.13;5023053;28;20201;-76
2024/01/14 06:43:21;;;;;;;49.90;28.43;;;;;;;-1.40;100.00;100298.00;5018215;28;20201;-77
2024/01/14 06:45:46;;;;;;;72.67;46.57;;;;;;;-1.40;100.00;100289.50;5024599;28;20227;-77
2024/01/14 06:48:11;;;;;;;59.43;39.10;;;;;;;-1.40;100.00;100290.38;5028876;28;20185;-77
2024/01/14 06:50:37;;;;;;;49.97;31.10;;;;;;;-1.45;100.00;100291.88;5022560;28;20236;-77
2024/01/14 06:53:03;;;;;;;51.47;33.60;;;;;;;-1.53;100.00;100285.63;5029779;28;20213;-76
2024/01/14 06:55:28;;;;;;;45.70;29.53;;;;;;;-1.61;100.00;100282.78;5028100;28;20247;-76
2024/01/14 06:57:53;;;;;;;53.77;31.70;;;;;;;-1.62;100.00;100278.50;5025265;28;20195;-76
2024/01/14 07:00:19;;;;;;;47.37;28.80;;;;;;;-1.60;100.00;100269.28;5027125;28;20252;-77
2024/01/14 07:02:44;;;;;;;47.50;29.77;;;;;;;-1.58;100.00;100265.13;5023183;28;20302;-77
2024/01/14 07:05:10;;;;;;;45.87;27.27;;;;;;;-1.58;100.00;100277.81;5024872;28;20188;-77
2024/01/14 07:07:35;;;;;;;42.27;26.57;;;;;;;-1.61;100.00;100275.16;5025911;28;20191;-76
2024/01/14 07:10:01;;;;;;;47.37;26.90;;;;;;;-1.59;100.00;100268.47;5027481;28;20215;-76
2024/01/14 07:12:27;;;;;;;45.90;27.10;;;;;;;-1.56;100.00;100275.34;5022133;28;20200;-76
2024/01/14 07:14:52;;;;;;;41.33;25.77;;;;;;;-1.57;100.00;100271.06;5024022;28;20182;-76
2024/01/14 07:17:18;;;;;;;42.27;26.77;;;;;;;-1.48;100.00;100266.34;5019773;28;20728;-76
2024/01/14 07:19:44;;;;;;;44.07;27.33;;;;;;;-1.56;100.00;100266.06;5023024;28;20203;-77
2024/01/14 07:22:09;;;;;;;41.70;26.50;;;;;;;-1.55;100.00;100259.31;5020810;28;20204;-76
2024/01/14 07:24:34;;;;;;;45.60;27.63;;;;;;;-1.56;100.00;100248.28;5027167;28;20183;-77
2024/01/14 07:27:01;;;;;;;43.10;27.53;;;;;;;-1.54;100.00;100254.28;5021091;28;20197;-76
2024/01/14 07:29:27;;;;;;;39.63;24.83;;;;;;;-1.52;100.00;100251.84;5022385;28;20557;-77
2024/01/14 07:31:53;;;;;;;44.20;26.70;;;;;;;-1.52;100.00;100249.28;5022099;28;20200;-76
2024/01/14 07:34:18;;;;;;;43.43;26.50;;;;;;;-1.52;100.00;100249.28;5012845;28;20200;-76
2024/01/14 07:36:43;;;;;;;39.60;24.60;;;;;;;-1.55;100.00;100252.56;5016433;28;20182;-77
2024/01/14 07:39:09;;;;;;;43.90;27.40;;;;;;;-1.50;100.00;100246.81;5008700;28;20188;-75
2024/01/14 07:41:34;;;;;;;41.57;26.37;;;;;;;-1.54;100.00;100249.22;5026567;28;20297;-77
2024/01/14 07:43:59;;;;;;;46.87;27.57;;;;;;;-1.53;100.00;100255.19;5006808;28;20609;-77
2024/01/14 07:46:25;;;;;;;39.77;24.57;;;;;;;-1.49;100.00;100251.06;5035939;28;20187;-76
2024/01/14 07:48:51;;;;;;;48.07;27.30;;;;;;;-1.45;100.00;100248.72;5028057;28;20188;-76
2024/01/14 07:51:16;;;;;;;44.60;26.57;;;;;;;-1.30;100.00;100250.13;5009425;28;20626;-76
2024/01/14 07:53:41;;;;;;;46.30;27.07;;;;;;;-1.32;100.00;100242.44;5018197;28;20194;-77
2024/01/14 07:56:07;;;;;;;43.00;26.30;;;;;;;-1.28;100.00;100240.88;5007546;28;20276;-77
2024/01/14 07:58:33;;;;;;;47.70;28.13;;;;;;;-1.27;100.00;100232.47;5005851;28;20192;-78
2024/01/14 08:00:58;;;;;;;42.97;28.00;;;;;;;-1.28;100.00;100231.56;5010855;28;20734;-76
2024/01/14 08:03:23;;;;;;;46.03;29.33;;;;;;;-1.16;100.00;100223.56;5019636;28;20200;-77
2024/01/14 08:05:49;;;;;;;42.87;27.50;;;;;;;-1.13;100.00;100217.72;5018864;28;20649;-77
2024/01/14 08:08:14;;;;;;;44.23;27.97;;;;;;;-1.05;100.00;100218.91;5024207;28;20198;-76
2024/01/14 08:10:39;;;;;;;43.97;27.20;;;;;;;-1.01;100.00;100213.13;5021497;28;20254;-76
2024/01/14 08:13:05;;;;;;;44.43;28.43;;;;;;;-0.97;100.00;100206.47;5021471;28;20759;-76
2024/01/14 08:15:31;;;;;;;46.73;29.10;;;;;;;-0.95;100.00;100205.72;5022461;28;20196;-77
2024/01/14 08:17:56;;;;;;;46.10;28.80;;;;;;;-0.96;100.00;100203.97;5020249;28;20234;-77
2024/01/14 08:20:21;;;;;;;50.27;30.87;;;;;;;-0.93;100.00;100193.09;5023104;28;20272;-77
2024/01/14 08:22:47;;;;;;;47.23;29.37;;;;;;;-0.91;100.00;100194.00;5020385;28;20199;-77
2024/01/14 08:25:12;;;;;;;46.90;29.67;;;;;;;-0.83;100.00;100186.66;5023924;28;20200;-78
2024/01/14 08:27:38;;;;;;;42.20;29.73;;;;;;;-0.80;100.00;100189.28;5020730;28;20194;-76
2024/01/14 08:30:07;;;;;;;45.83;29.93;;;;;;;-0.74;100.00;100188.63;5021767;28;20243;-76
2024/01/14 08:32:32;;;;;;;45.57;30.63;;;;;;;-0.81;99.99;100195.19;5017063;28;20280;-76
2024/01/14 08:34:58;;;;;;;46.77;30.00;;;;;;;-0.79;100.00;100196.97;5021135;28;20277;-77
2024/01/14 08:37:24;;;;;;;43.50;29.57;;;;;;;-0.72;100.00;100192.09;5038623;28;20278;-77
2024/01/14 08:39:50;;;;;;;49.13;30.70;;;;;;;-0.72;99.99;100195.53;5023503;28;20219;-76
2024/01/14 08:42:16;;;;;;;49.27;32.50;;;;;;;-0.73;99.65;100196.34;5024162;28;20217;-77
2024/01/14 08:44:42;;;;;;;48.67;29.87;;;;;;;-0.75;99.89;100197.94;5024639;28;20193;-77
2024/01/14 08:47:07;;;;;;;46.40;31.37;;;;;;;-0.77;99.44;100187.75;5022943;28;20665;-77
2024/01/14 08:49:32;;;;;;;51.10;32.37;;;;;;;-0.61;98.77;100185.75;5021454;28;20763;-76
2024/01/14 08:51:58;;;;;;;48.23;29.70;;;;;;;-0.72;99.24;100187.91;5023238;28;20193;-77
2024/01/14 08:54:23;;;;;;;47.87;30.37;;;;;;;-0.63;98.21;100190.75;5023737;28;20644;-77
2024/01/14 08:56:49;;;;;;;52.07;32.53;;;;;;;-0.74;98.84;100175.94;5020615;28;20300;-76
2024/01/14 08:59:14;;;;;;;47.37;30.77;;;;;;;-0.76;99.87;100180.97;5030203;28;20193;-77
2024/01/14 09:01:40;;;;;;;62.97;42.10;;;;;;;-0.73;100.00;100186.16;5025803;28;20302;-76
2024/01/14 09:04:05;;;;;;;57.73;37.77;;;;;;;-0.55;99.81;100183.38;5022731;28;20187;-76
2024/01/14 09:06:31;;;;;;;47.27;32.73;;;;;;;-0.62;98.89;100182.31;5023406;28;20666;-76
2024/01/14 09:08:56;;;;;;;45.57;31.20;;;;;;;-0.47;97.80;100170.94;5020262;28;20602;-76
2024/01/14 09:11:21;;;;;;;51.50;33.10;;;;;;;-0.52;98.27;100180.97;5036811;28;20315;-76
2024/01/14 09:13:47;;;;;;;43.77;31.37;;;;;;;-0.62;98.78;100173.84;5022546;28;20245;-77
2024/01/14 09:16:13;;;;;;;43.23;29.70;;;;;;;-0.62;98.79;100176.38;5023387;28;20258;-76
2024/01/14 09:18:38;;;;;;;48.13;31.13;;;;;;;-0.62;98.93;100173.84;5024017;28;20254;-76
2024/01/14 09:21:04;;;;;;;49.87;32.80;;;;;;;-0.49;97.57;100163.28;5024658;28;20244;-76
2024/01/14 09:23:29;;;;;;;44.57;29.30;;;;;;;-0.62;98.26;100173.84;5020967;28;20587;-77
2024/01/14 09:25:56;;;;;;;48.10;29.37;;;;;;;-0.49;97.82;100170.03;5018997;28;20194;-76
2024/01/14 09:28:24;;;;;;;44.90;29.27;;;;;;;-0.36;97.91;100171.31;5022170;28;20559;-76
2024/01/14 09:30:49;;;;;;;45.17;30.63;;;;;;;-0.44;96.84;100167.63;5026901;28;20259;-77
2024/01/14 09:33:15;;;;;;;42.97;28.03;;;;;;;-0.52;97.48;100169.91;5028892;28;20219;-77
2024/01/14 09:35:41;;;;;;;43.53;28.53;;;;;;;-0.50;97.91;100170.84;5008037;28;20767;-76
2024/01/14 09:38:06;;;;;;;45.80;29.23;;;;;;;-0.46;97.22;100165.03;5024626;28;20194;-77
2024/01/14 09:40:33;;;;;;;47.43;29.23;;;;;;;-0.32;96.35;100171.47;5021650;28;20255;-77
2024/01/14 09:43:00;;;;;;;44.53;27.17;;;;;;;-0.38;95.83;100172.94;5025618;28;20595;-77
2024/01/14 09:45:26;;;;;;;44.27;28.77;;;;;;;-0.40;95.66;100169.47;5024867;28;20191;-77
2024/01/14 09:47:52;;;;;;;40.07;27.10;;;;;;;-0.52;95.24;100170.78;5027413;28;20314;-77
2024/01/14 09:50:17;;;;;;;36.93;25.20;;;;;;;-0.48;95.44;100161.59;5039885;28;20208;-77
2024/01/14 09:52:43;;;;;;;41.03;26.90;;;;;;;-0.33;95.51;100173.97;5023225;28;20195;-77
2024/01/14 09:55:10;;;;;;;44.37;28.27;;;;;;;-0.20;95.29;100160.84;5024200;28;20185;-76
2024/01/14 09:57:37;;;;;;;39.90;26.27;;;;;;;-0.23;95.27;100155.63;5023267;28;20712;-77
2024/01/14 10:00:04;;;;;;;42.73;27.53;;;;;;;-0.14;94.77;100154.19;5021748;28;20199;-77
2024/01/14 10:02:34;;;;;;;42.47;27.70;;;;;;;-0.04;94.75;100146.91;5026023;28;20548;-76
2024/01/14 10:05:00;;;;;;;42.87;29.27;;;;;;;0.05;93.91;100138.72;5027427;28;20481;-77
2024/01/14 10:07:26;;;;;;;42.00;27.77;;;;;;;0.04;93.60;100147.16;5025453;28;20693;-76
2024/01/14 10:09:52;;;;;;;46.53;28.90;;;;;;;0.11;93.78;100138.91;5024771;28;20217;-77
2024/01/14 10:12:18;;;;;;;38.93;25.63;;;;;;;0.10;93.37;100139.72;5021862;28;20190;-76
2024/01/14 10:14:44;;;;;;;40.27;27.00;;;;;;;0.16;93.10;100141.59;5021712;28;20233;-76
2024/01/14 10:17:13;;;;;;;41.40;26.97;;;;;;;0.24;93.27;100136.75;5025561;28;20194;-76
2024/01/14 10:19:39;;;;;;;44.20;27.47;;;;;;;0.36;93.17;100139.66;5021661;28;20295;-77
2024/01/14 10:22:04;;;;;;;42.13;27.70;;;;;;;0.39;92.72;100137.22;5025368;28;20211;-77
2024/01/14 10:24:29;;;;;;;39.50;27.13;;;;;;;0.43;92.83;100131.41;5039910;28;20415;-76
2024/01/14 10:26:55;;;;;;;39.77;26.30;;;;;;;0.50;92.21;100129.88;5023757;28;20214;-77
2024/01/14 10:29:21;;;;;;;42.00;27.77;;;;;;;0.56;91.38;100130.06;5024825;28;20198;-76
2024/01/14 10:31:48;;;;;;;39.30;25.77;;;;;;;0.64;91.17;100125.19;5019368;28;20688;-76
2024/01/14 10:34:16;;;;;;;38.43;25.57;;;;;;;0.70;90.69;100127.03;5025511;28;20659;-76
2024/01/14 10:36:42;;;;;;;37.50;25.80;;;;;;;0.72;89.69;100120.31;5024410;28;20726;-76
2024/01/14 10:39:10;;;;;;;42.70;27.53;;;;;;;0.75;89.64;100117.84;5022097;28;20302;-76
2024/01/14 10:41:36;;;;;;;41.37;26.97;;;;;;;0.79;89.57;100106.94;5023825;28;20271;-77
2024/01/14 10:44:02;;;;;;;41.87;27.67;;;;;;;0.79;88.67;100111.16;5024508;28;20199;-77
2024/01/14 10:46:30;;;;;;;45.87;28.47;;;;;;;0.77;89.25;100113.66;5021400;28;20195;-77
2024/01/14 10:49:17;;;;;;;45.53;27.87;;;;;;;0.74;89.59;100106.81;5021844;28;20198;-77
2024/01/14 10:51:49;;;;;;;40.87;27.00;;;;;;;0.76;89.82;100101.75;5023586;28;20178;-76
2024/01/14 10:54:47;;;;;;;40.23;27.30;;;;;;;0.76;89.97;100096.66;5021496;28;20226;-76
2024/01/14 10:57:31;;;;;;;41.63;27.30;;;;;;;0.80;89.90;100095.94;5025427;28;20180;-77
2024/01/14 11:00:00;;;;;;;42.27;27.50;;;;;;;0.85;90.15;100088.41;5022647;28;20264;-76